Flugplatz Kehl-Sundheim (EDSK)

Hier findest Du alle Informationen zum Flugplatz Kehl-Sundheim (EDSK).

Informationen für Piloten zum Flugplatz Kehl-Sundheim

Hier findest Du alle relevanten Informationen, die Du als Pilot benötigst, um Kehl-Sundheim anzufliegen.

Flugplatz: Kehl-Sundheim ICAO-Code: EDSK
Frequenz Turm: 122,750 Mhz GAFOR Gebiet: 51
Frequenz Ground: 122,750 Mhz Mogas: ja
Platzrunde: SE 1300 ft Landegebühr: -
Platzhöhe: - Sunrise: 03:33 Uhr UTC
Pisten: 03/21 - 475 m x 30 m, GRAS Sunset: 19:33 Uhr UTC

Flugwetter am Flugplatz Kehl-Sundheim

Die METAR Information stammen aus EDTL (21.12 km entfernt).

METAR Code:
2020/07/03 17:50
EDTL 031750Z 33004KT CAVOK 23/09 Q1019

Temperatur: 22,7 °C Niederschlag: - Wind: 5,1 kt
Temperatur (min.): 22,2 °C Luftdruck: 1018 hPa Windrichtung: 330 °
Temperatur (max.): 23,0 °C Luftfeuchtigkeit: 35 % Bewölkung: -

Flugschulen am Flugplatz Kehl-Sundheim

Am Flugplatz Kehl-Sundheim gibt es 2 Flugschulen.

Benachbarte Flugplätze und Flugschulen

Es gibt 6 weitere Flugplätze in einem Umkreis von 50 km um den Flugplatz Kehl-Sundheim.

Jetzt anmelden

Passwort vergessen

Umfrage Archiv

Wären Rettungsgeräte keine Pflicht mehr, würdet Ihr Euer UL trotzdem mit einem ausstatten?

Ja
82.1 %
Nein
17.9 %
Stimmen: 195 | Diskussion
Anzeige: Roland Aircraft
Statistik Alle Mitglieder

Aktuell sind 20 Besucher online.

Anzeige: VFR Sprechfunk Simulator


Anzeige: Pocket FMS